PWSweather.com
Personal Weather Stations
Station Observations
JOE4SPEED
Jupiter, Fl, Jupiter, FL 33458

Jupiter, FlJupiter, FL 33458

Lat: 26.9373, Lon: -80.1101

Elevation: 12

Station Type: Davis VP 2

http://www.joe4speed.com/wxindex.php

High Low Average
Temperature 76.3°F24.6°C 76.3°F24.6°C 76.3°F24.6°C
Dew Point 71.4°F21.9°C 71.1°F21.7°C 71.2°F21.8°C
Winds 4.8 mph 7.7 kmh 3.6 mph 5.8 kmh 4.0 mph SSE6.4 kmh SSE
Wind Gusts 10.0 mph16.1 kmh 6.0 mph9.7 kmh 7.0 mph11.3 kmh
Humidity 85% 84% 84%
Pressure 29.95 in1014.2 mb 29.94 in1013.9 mb -
Precipitation 0.00 in0.0 mm - -
Hour Temp Dew Point Humidity Winds Wind Gusts Pressure Precip Precip Rate Daily Precip Total
12:00 AM 76.4°F24.7°C 71.6°F22.0°C 85% 4.7 mph SE7.6 kmh SE 7.0 mph11.3 kmh 29.95 in1014.2 mb 0.00 in0.0 mm 0.00 in/hr0.0 mm/hr 0.00 in0.0 mm
12:10 AM 76.4°F24.7°C 71.6°F22.0°C 85% 4.8 mph S7.7 kmh S 8.0 mph12.9 kmh 29.95 in1014.2 mb 0.00 in0.0 mm 0.00 in/hr0.0 mm/hr 0.00 in0.0 mm
12:20 AM 76.2°F24.6°C 71.4°F21.9°C 85% 6.1 mph SE9.8 kmh SE 9.0 mph14.5 kmh 29.95 in1014.2 mb 0.00 in0.0 mm 0.00 in/hr0.0 mm/hr 0.00 in0.0 mm
12:30 AM 76.2°F24.6°C 71.0°F21.7°C 84% 4.4 mph SE7.1 kmh SE 7.0 mph11.3 kmh 29.95 in1014.2 mb 0.00 in0.0 mm 0.00 in/hr0.0 mm/hr 0.00 in0.0 mm
12:40 AM 76.2°F24.6°C 71.0°F21.7°C 84% 4.1 mph S6.6 kmh S 8.0 mph12.9 kmh 29.95 in1014.2 mb 0.00 in0.0 mm 0.00 in/hr0.0 mm/hr 0.00 in0.0 mm
12:50 AM 76.2°F24.6°C 71.0°F21.7°C 84% 5.2 mph SE8.4 kmh SE 10.0 mph16.1 kmh 29.95 in1014.2 mb 0.00 in0.0 mm 0.00 in/hr0.0 mm/hr 0.00 in0.0 mm
01:00 AM 76.3°F24.6°C 71.1°F21.7°C 84% 4.8 mph SE7.7 kmh SE 10.0 mph16.1 kmh 29.95 in1014.2 mb 0.00 in0.0 mm 0.00 in/hr0.0 mm/hr 0.00 in0.0 mm
01:10 AM 76.3°F24.6°C 71.1°F21.7°C 84% 4.0 mph S6.4 kmh S 6.0 mph9.7 kmh 29.95 in1014.2 mb 0.00 in0.0 mm 0.00 in/hr0.0 mm/hr 0.00 in0.0 mm
01:20 AM 76.3°F24.6°C 71.4°F21.9°C 85% 3.6 mph S5.8 kmh S 6.0 mph9.7 kmh 29.94 in1013.9 mb 0.00 in0.0 mm 0.00 in/hr0.0 mm/hr 0.00 in0.0 mm
01:30 AM 76.2°F24.6°C 71.4°F21.9°C 85% 3.7 mph SW6.0 kmh SW 6.0 mph9.7 kmh 29.95 in1014.2 mb 0.00 in0.0 mm 0.00 in/hr0.0 mm/hr 0.00 in0.0 mm
07:26 AM 73.7°F23.2°C 70.9°F21.6°C 91% 5.1 mph NW8.2 kmh NW 7.0 mph11.3 kmh 29.93 in1013.5 mb 0.00 in0.0 mm 0.00 in/hr0.0 mm/hr 0.11 in2.8 mm
07:30 AM 70.1°F21.2°C 67.0°F19.4°C 90% 1.3 mph SW2.1 kmh SW 3.0 mph4.8 kmh 29.94 in1013.9 mb 0.56 in14.2 mm 8.40 in/hr213.4 mm/hr 1.08 in27.4 mm
07:40 AM 70.3°F21.3°C 67.5°F19.7°C 91% 0.1 mph SW0.2 kmh SW -- 29.94 in1013.9 mb 0.02 in0.5 mm 0.12 in/hr3.0 mm/hr 1.09 in27.7 mm
07:50 AM 70.5°F21.4°C 67.7°F19.8°C 91% 0.4 mph SW0.6 kmh SW 2.0 mph3.2 kmh 29.94 in1013.9 mb 0.00 in0.0 mm 0.00 in/hr0.0 mm/hr 1.09 in27.7 mm
08:00 AM 70.7°F21.5°C 68.3°F20.2°C 92% 1.6 mph SW2.6 kmh SW 3.0 mph4.8 kmh 29.95 in1014.2 mb 0.00 in0.0 mm 0.00 in/hr0.0 mm/hr 1.09 in27.7 mm
08:10 AM 70.8°F21.6°C 68.4°F20.2°C 92% 0.1 mph SW0.2 kmh SW -- 29.95 in1014.2 mb 0.00 in0.0 mm 0.00 in/hr0.0 mm/hr 1.09 in27.7 mm
08:20 AM 70.9°F21.6°C 68.4°F20.2°C 92% Calm Calm -- 29.95 in1014.2 mb 0.00 in0.0 mm 0.00 in/hr0.0 mm/hr 1.09 in27.7 mm
08:30 AM 70.9°F21.6°C 68.5°F20.3°C 92% Calm Calm -- 29.94 in1013.9 mb 0.00 in0.0 mm 0.00 in/hr0.0 mm/hr 1.09 in27.7 mm
08:40 AM 71.3°F21.8°C 68.9°F20.5°C 92% 1.0 mph SW1.6 kmh SW 2.0 mph3.2 kmh 29.94 in1013.9 mb 0.00 in0.0 mm 0.00 in/hr0.0 mm/hr 1.09 in27.7 mm
08:50 AM 71.3°F21.8°C 68.9°F20.5°C 92% Calm Calm 1.0 mph1.6 kmh 29.95 in1014.2 mb 0.00 in0.0 mm 0.00 in/hr0.0 mm/hr 1.09 in27.7 mm
09:00 AM 71.2°F21.8°C 68.8°F20.4°C 92% 0.4 mph SW0.6 kmh SW 2.0 mph3.2 kmh 29.95 in1014.2 mb 0.00 in0.0 mm 0.00 in/hr0.0 mm/hr 1.09 in27.7 mm
09:10 AM 71.5°F21.9°C 69.1°F20.6°C 92% 1.0 mph SSW1.6 kmh SSW 2.0 mph3.2 kmh 29.94 in1013.9 mb 0.00 in0.0 mm 0.00 in/hr0.0 mm/hr 1.09 in27.7 mm
09:20 AM 72.3°F22.4°C 69.8°F21.0°C 92% 1.1 mph SSW1.8 kmh SSW 2.0 mph3.2 kmh 29.95 in1014.2 mb 0.00 in0.0 mm 0.00 in/hr0.0 mm/hr 1.09 in27.7 mm
09:30 AM 73.2°F22.9°C 70.8°F21.6°C 92% 1.8 mph SW2.9 kmh SW 5.0 mph8.0 kmh 29.95 in1014.2 mb 0.00 in0.0 mm 0.00 in/hr0.0 mm/hr 1.09 in27.7 mm
09:40 AM 73.3°F22.9°C 70.2°F21.2°C 90% 2.4 mph WSW3.9 kmh WSW 3.0 mph4.8 kmh 29.95 in1014.2 mb 0.00 in0.0 mm 0.00 in/hr0.0 mm/hr 1.09 in27.7 mm
09:50 AM 74.0°F23.3°C 70.5°F21.4°C 89% 1.5 mph SW2.4 kmh SW 2.0 mph3.2 kmh 29.94 in1013.9 mb 0.00 in0.0 mm 0.00 in/hr0.0 mm/hr 1.09 in27.7 mm
10:00 AM 74.6°F23.7°C 70.1°F21.2°C 86% 2.5 mph WSW4.0 kmh WSW 4.0 mph6.4 kmh 29.94 in1013.9 mb 0.00 in0.0 mm 0.00 in/hr0.0 mm/hr 1.09 in27.7 mm
10:10 AM 75.9°F24.4°C 70.3°F21.3°C 83% 2.6 mph S4.2 kmh S 5.0 mph8.0 kmh 29.94 in1013.9 mb 0.00 in0.0 mm 0.00 in/hr0.0 mm/hr 1.09 in27.7 mm
10:20 AM 76.7°F24.8°C 71.1°F21.7°C 83% 1.1 mph N1.8 kmh N 2.0 mph3.2 kmh 29.94 in1013.9 mb 0.00 in0.0 mm 0.00 in/hr0.0 mm/hr 1.09 in27.7 mm
10:30 AM 77.7°F25.4°C 71.4°F21.9°C 81% 2.3 mph WSW3.7 kmh WSW 4.0 mph6.4 kmh 29.95 in1014.2 mb 0.00 in0.0 mm 0.00 in/hr0.0 mm/hr 1.09 in27.7 mm
10:40 AM 78.2°F25.7°C 71.2°F21.8°C 79% 3.0 mph SSW4.8 kmh SSW 5.0 mph8.0 kmh 29.94 in1013.9 mb 0.00 in0.0 mm 0.00 in/hr0.0 mm/hr 1.09 in27.7 mm
10:50 AM 78.7°F25.9°C 71.6°F22.0°C 79% 2.0 mph SW3.2 kmh SW 7.0 mph11.3 kmh 29.95 in1014.2 mb 0.00 in0.0 mm 0.00 in/hr0.0 mm/hr 1.09 in27.7 mm
11:00 AM 78.5°F25.8°C 71.4°F21.9°C 79% 1.5 mph SW2.4 kmh SW 3.0 mph4.8 kmh 29.95 in1014.2 mb 0.00 in0.0 mm 0.00 in/hr0.0 mm/hr 1.09 in27.7 mm
11:10 AM 78.6°F25.9°C 71.2°F21.8°C 78% 2.3 mph SW3.7 kmh SW 4.0 mph6.4 kmh 29.95 in1014.2 mb 0.00 in0.0 mm 0.00 in/hr0.0 mm/hr 1.09 in27.7 mm
11:20 AM 78.4°F25.8°C 71.0°F21.7°C 78% 2.0 mph WSW3.2 kmh WSW 3.0 mph4.8 kmh 29.94 in1013.9 mb 0.00 in0.0 mm 0.00 in/hr0.0 mm/hr 1.09 in27.7 mm
11:30 AM 79.6°F26.4°C 71.4°F21.9°C 76% 2.5 mph WSW4.0 kmh WSW 3.0 mph4.8 kmh 29.93 in1013.5 mb 0.00 in0.0 mm 0.00 in/hr0.0 mm/hr 1.09 in27.7 mm
11:40 AM 80.6°F27.0°C 71.2°F21.8°C 73% 1.8 mph SW2.9 kmh SW 3.0 mph4.8 kmh 29.93 in1013.5 mb 0.00 in0.0 mm 0.00 in/hr0.0 mm/hr 1.09 in27.7 mm
11:50 AM 80.7°F27.1°C 72.4°F22.4°C 76% 3.0 mph SW4.8 kmh SW 5.0 mph8.0 kmh 29.93 in1013.5 mb 0.00 in0.0 mm 0.00 in/hr0.0 mm/hr 1.09 in27.7 mm
12:00 PM 81.7°F27.6°C 72.2°F22.3°C 73% 3.5 mph SSW5.6 kmh SSW 5.0 mph8.0 kmh 29.93 in1013.5 mb 0.00 in0.0 mm 0.00 in/hr0.0 mm/hr 1.09 in27.7 mm
12:10 PM 82.1°F27.8°C 71.4°F21.9°C 70% 2.8 mph WSW4.5 kmh WSW 11.0 mph17.7 kmh 29.92 in1013.2 mb 0.00 in0.0 mm 0.00 in/hr0.0 mm/hr 1.09 in27.7 mm
12:20 PM 82.0°F27.8°C 70.8°F21.6°C 69% 4.0 mph WSW6.4 kmh WSW 7.0 mph11.3 kmh 29.92 in1013.2 mb 0.00 in0.0 mm 0.00 in/hr0.0 mm/hr 1.09 in27.7 mm
12:30 PM 82.3°F27.9°C 71.1°F21.7°C 69% 3.0 mph SW4.8 kmh SW 5.0 mph8.0 kmh 29.92 in1013.2 mb 0.00 in0.0 mm 0.00 in/hr0.0 mm/hr 1.09 in27.7 mm
12:40 PM 82.2°F27.9°C 70.6°F21.4°C 68% 2.9 mph WSW4.7 kmh WSW 6.0 mph9.7 kmh 29.92 in1013.2 mb 0.00 in0.0 mm 0.00 in/hr0.0 mm/hr 1.09 in27.7 mm
12:50 PM 81.6°F27.6°C 70.4°F21.3°C 69% 2.4 mph WSW3.9 kmh WSW 5.0 mph8.0 kmh 29.91 in1012.9 mb 0.00 in0.0 mm 0.00 in/hr0.0 mm/hr 1.09 in27.7 mm
01:00 PM 82.5°F28.1°C 70.9°F21.6°C 68% 2.7 mph WSW4.3 kmh WSW 8.0 mph12.9 kmh 29.91 in1012.9 mb 0.00 in0.0 mm 0.00 in/hr0.0 mm/hr 1.09 in27.7 mm
01:10 PM 83.7°F28.7°C 71.1°F21.7°C 66% 2.0 mph WSW3.2 kmh WSW 4.0 mph6.4 kmh 29.90 in1012.5 mb 0.00 in0.0 mm 0.00 in/hr0.0 mm/hr 1.09 in27.7 mm
01:20 PM 82.2°F27.9°C 71.0°F21.7°C 69% 3.0 mph SE4.8 kmh SE 6.0 mph9.7 kmh 29.91 in1012.9 mb 0.00 in0.0 mm 0.00 in/hr0.0 mm/hr 1.09 in27.7 mm
01:30 PM 84.1°F28.9°C 71.5°F21.9°C 66% 5.1 mph WSW8.2 kmh WSW 5.0 mph8.0 kmh 29.90 in1012.5 mb 0.00 in0.0 mm 0.00 in/hr0.0 mm/hr 1.09 in27.7 mm
01:40 PM 84.3°F29.1°C 72.6°F22.6°C 68% 3.4 mph WNW5.5 kmh WNW 9.0 mph14.5 kmh 29.90 in1012.5 mb 0.00 in0.0 mm 0.00 in/hr0.0 mm/hr 1.09 in27.7 mm
01:50 PM 83.2°F28.4°C 70.7°F21.5°C 66% 1.6 mph WSW2.6 kmh WSW 3.0 mph4.8 kmh 29.90 in1012.5 mb 0.00 in0.0 mm 0.00 in/hr0.0 mm/hr 1.09 in27.7 mm
02:00 PM 85.2°F29.6°C 71.2°F21.8°C 63% 2.9 mph WSW4.7 kmh WSW 5.0 mph8.0 kmh 29.89 in1012.2 mb 0.00 in0.0 mm 0.00 in/hr0.0 mm/hr 1.09 in27.7 mm
02:10 PM 84.6°F29.2°C 71.1°F21.7°C 64% 2.3 mph SSW3.7 kmh SSW 5.0 mph8.0 kmh 29.89 in1012.2 mb 0.00 in0.0 mm 0.00 in/hr0.0 mm/hr 1.09 in27.7 mm
02:20 PM 85.7°F29.8°C 72.1°F22.3°C 64% 2.8 mph W4.5 kmh W 6.0 mph9.7 kmh 29.89 in1012.2 mb 0.00 in0.0 mm 0.00 in/hr0.0 mm/hr 1.09 in27.7 mm
02:30 PM 85.2°F29.6°C 71.2°F21.8°C 63% 3.4 mph WSW5.5 kmh WSW 5.0 mph8.0 kmh 29.89 in1012.2 mb 0.00 in0.0 mm 0.00 in/hr0.0 mm/hr 1.09 in27.7 mm
02:40 PM 85.0°F29.4°C 70.5°F21.4°C 62% 4.1 mph WSW6.6 kmh WSW 6.0 mph9.7 kmh 29.88 in1011.9 mb 0.00 in0.0 mm 0.00 in/hr0.0 mm/hr 1.09 in27.7 mm
02:50 PM 85.1°F29.5°C 70.6°F21.4°C 62% 3.3 mph WSW5.3 kmh WSW 6.0 mph9.7 kmh 29.88 in1011.9 mb 0.00 in0.0 mm 0.00 in/hr0.0 mm/hr 1.09 in27.7 mm
03:00 PM 84.4°F29.1°C 69.9°F21.1°C 62% 2.8 mph WSW4.5 kmh WSW 6.0 mph9.7 kmh 29.88 in1011.9 mb 0.00 in0.0 mm 0.00 in/hr0.0 mm/hr 1.09 in27.7 mm
03:10 PM 84.5°F29.2°C 70.5°F21.4°C 63% 2.9 mph WSW4.7 kmh WSW 5.0 mph8.0 kmh 29.88 in1011.9 mb 0.00 in0.0 mm 0.00 in/hr0.0 mm/hr 1.09 in27.7 mm
03:20 PM 84.8°F29.3°C 71.3°F21.8°C 64% 3.0 mph WSW4.8 kmh WSW 7.0 mph11.3 kmh 29.87 in1011.5 mb 0.00 in0.0 mm 0.00 in/hr0.0 mm/hr 1.09 in27.7 mm
03:30 PM 84.8°F29.3°C 70.4°F21.3°C 62% 4.1 mph WSW6.6 kmh WSW 5.0 mph8.0 kmh 29.87 in1011.5 mb 0.00 in0.0 mm 0.00 in/hr0.0 mm/hr 1.09 in27.7 mm
03:40 PM 84.2°F29.0°C 70.7°F21.5°C 64% 3.2 mph WNW5.1 kmh WNW 6.0 mph9.7 kmh 29.87 in1011.5 mb 0.00 in0.0 mm 0.00 in/hr0.0 mm/hr 1.09 in27.7 mm
03:50 PM 83.9°F28.8°C 70.8°F21.6°C 65% 4.3 mph WSW6.9 kmh WSW 6.0 mph9.7 kmh 29.87 in1011.5 mb 0.00 in0.0 mm 0.00 in/hr0.0 mm/hr 1.09 in27.7 mm
04:00 PM 83.5°F28.6°C 70.5°F21.4°C 65% 3.0 mph WSW4.8 kmh WSW 7.0 mph11.3 kmh 29.87 in1011.5 mb 0.00 in0.0 mm 0.00 in/hr0.0 mm/hr 1.09 in27.7 mm
04:10 PM 85.0°F29.4°C 70.5°F21.4°C 62% 3.4 mph W5.5 kmh W 12.0 mph19.3 kmh 29.87 in1011.5 mb 0.00 in0.0 mm 0.00 in/hr0.0 mm/hr 1.09 in27.7 mm
04:20 PM 83.6°F28.7°C 70.1°F21.2°C 64% 5.3 mph W8.5 kmh W 10.0 mph16.1 kmh 29.87 in1011.5 mb 0.00 in0.0 mm 0.00 in/hr0.0 mm/hr 1.09 in27.7 mm
04:30 PM 83.2°F28.4°C 69.8°F21.0°C 64% 6.0 mph NW9.7 kmh NW 8.0 mph12.9 kmh 29.87 in1011.5 mb 0.00 in0.0 mm 0.00 in/hr0.0 mm/hr 1.09 in27.7 mm
04:40 PM 82.2°F27.9°C 69.3°F20.7°C 65% 7.9 mph WSW12.7 kmh WSW 14.0 mph22.5 kmh 29.88 in1011.9 mb 0.00 in0.0 mm 0.00 in/hr0.0 mm/hr 1.09 in27.7 mm
04:50 PM 81.6°F27.6°C 68.7°F20.4°C 65% 7.9 mph W12.7 kmh W 20.0 mph32.2 kmh 29.88 in1011.9 mb 0.00 in0.0 mm 0.00 in/hr0.0 mm/hr 1.09 in27.7 mm
05:00 PM 81.7°F27.6°C 69.2°F20.7°C 66% 4.4 mph W7.1 kmh W 11.0 mph17.7 kmh 29.88 in1011.9 mb 0.00 in0.0 mm 0.00 in/hr0.0 mm/hr 1.09 in27.7 mm
05:10 PM 81.3°F27.4°C 68.0°F20.0°C 64% 5.6 mph WNW9.0 kmh WNW 9.0 mph14.5 kmh 29.88 in1011.9 mb 0.00 in0.0 mm 0.00 in/hr0.0 mm/hr 1.09 in27.7 mm
05:20 PM 81.9°F27.7°C 69.0°F20.6°C 65% 3.9 mph W6.3 kmh W 12.0 mph19.3 kmh 29.87 in1011.5 mb 0.00 in0.0 mm 0.00 in/hr0.0 mm/hr 1.09 in27.7 mm
05:30 PM 81.8°F27.7°C 68.0°F20.0°C 63% 4.9 mph W7.9 kmh W 6.0 mph9.7 kmh 29.87 in1011.5 mb 0.00 in0.0 mm 0.00 in/hr0.0 mm/hr 1.09 in27.7 mm
05:40 PM 81.8°F27.7°C 67.9°F19.9°C 63% 3.9 mph WSW6.3 kmh WSW 7.0 mph11.3 kmh 29.88 in1011.9 mb 0.00 in0.0 mm 0.00 in/hr0.0 mm/hr 1.09 in27.7 mm
05:50 PM 82.4°F28.0°C 67.6°F19.8°C 61% 3.6 mph WNW5.8 kmh WNW 5.0 mph8.0 kmh 29.88 in1011.9 mb 0.00 in0.0 mm 0.00 in/hr0.0 mm/hr 1.09 in27.7 mm
06:00 PM 82.0°F27.8°C 67.2°F19.6°C 61% 3.9 mph WSW6.3 kmh WSW 6.0 mph9.7 kmh 29.88 in1011.9 mb 0.00 in0.0 mm 0.00 in/hr0.0 mm/hr 1.09 in27.7 mm
06:10 PM 81.3°F27.4°C 66.6°F19.2°C 61% 4.1 mph W6.6 kmh W 6.0 mph9.7 kmh 29.88 in1011.9 mb 0.00 in0.0 mm 0.00 in/hr0.0 mm/hr 1.09 in27.7 mm
06:20 PM 80.5°F26.9°C 65.8°F18.8°C 61% 3.9 mph WSW6.3 kmh WSW 6.0 mph9.7 kmh 29.88 in1011.9 mb 0.00 in0.0 mm 0.00 in/hr0.0 mm/hr 1.09 in27.7 mm
06:30 PM 79.6°F26.4°C 65.9°F18.8°C 63% 3.8 mph WSW6.1 kmh WSW 5.0 mph8.0 kmh 29.88 in1011.9 mb 0.00 in0.0 mm 0.00 in/hr0.0 mm/hr 1.09 in27.7 mm
06:40 PM 79.1°F26.2°C 65.5°F18.6°C 63% 4.5 mph WSW7.2 kmh WSW 8.0 mph12.9 kmh 29.88 in1011.9 mb 0.00 in0.0 mm 0.00 in/hr0.0 mm/hr 1.09 in27.7 mm
06:50 PM 78.9°F26.1°C 65.2°F18.4°C 63% 4.6 mph WSW7.4 kmh WSW 9.0 mph14.5 kmh 29.88 in1011.9 mb 0.00 in0.0 mm 0.00 in/hr0.0 mm/hr 1.09 in27.7 mm
07:00 PM 78.3°F25.7°C 65.1°F18.4°C 64% 2.7 mph W4.3 kmh W 15.0 mph24.1 kmh 29.89 in1012.2 mb 0.00 in0.0 mm 0.00 in/hr0.0 mm/hr 1.09 in27.7 mm
07:10 PM 77.8°F25.4°C 64.2°F17.9°C 63% 5.1 mph WSW8.2 kmh WSW 6.0 mph9.7 kmh 29.89 in1012.2 mb 0.00 in0.0 mm 0.00 in/hr0.0 mm/hr 1.09 in27.7 mm
07:20 PM 77.1°F25.1°C 63.5°F17.5°C 63% 5.6 mph WSW9.0 kmh WSW 13.0 mph20.9 kmh 29.89 in1012.2 mb 0.00 in0.0 mm 0.00 in/hr0.0 mm/hr 1.09 in27.7 mm
07:30 PM 76.2°F24.6°C 63.2°F17.3°C 64% 3.1 mph WSW5.0 kmh WSW 6.0 mph9.7 kmh 29.90 in1012.5 mb 0.00 in0.0 mm 0.00 in/hr0.0 mm/hr 1.09 in27.7 mm
07:40 PM 75.6°F24.2°C 63.0°F17.2°C 65% 2.9 mph W4.7 kmh W 5.0 mph8.0 kmh 29.90 in1012.5 mb 0.00 in0.0 mm 0.00 in/hr0.0 mm/hr 1.09 in27.7 mm
07:50 PM 75.1°F23.9°C 63.0°F17.2°C 66% 4.0 mph W6.4 kmh W 13.0 mph20.9 kmh 29.91 in1012.9 mb 0.00 in0.0 mm 0.00 in/hr0.0 mm/hr 1.09 in27.7 mm
08:00 PM 74.6°F23.7°C 62.5°F16.9°C 66% 1.7 mph SW2.7 kmh SW 6.0 mph9.7 kmh 29.91 in1012.9 mb 0.00 in0.0 mm 0.00 in/hr0.0 mm/hr 1.09 in27.7 mm
08:10 PM 74.2°F23.4°C 62.5°F16.9°C 67% 1.4 mph WSW2.3 kmh WSW 3.0 mph4.8 kmh 29.91 in1012.9 mb 0.00 in0.0 mm 0.00 in/hr0.0 mm/hr 1.09 in27.7 mm
08:20 PM 73.9°F23.3°C 62.2°F16.8°C 67% 2.7 mph W4.3 kmh W 5.0 mph8.0 kmh 29.92 in1013.2 mb 0.00 in0.0 mm 0.00 in/hr0.0 mm/hr 1.09 in27.7 mm
08:30 PM 73.5°F23.1°C 61.9°F16.6°C 67% 2.0 mph WSW3.2 kmh WSW 6.0 mph9.7 kmh 29.92 in1013.2 mb 0.00 in0.0 mm 0.00 in/hr0.0 mm/hr 1.09 in27.7 mm
08:40 PM 73.1°F22.8°C 61.9°F16.6°C 68% 3.0 mph WSW4.8 kmh WSW 5.0 mph8.0 kmh 29.92 in1013.2 mb 0.00 in0.0 mm 0.00 in/hr0.0 mm/hr 1.09 in27.7 mm
08:50 PM 72.8°F22.7°C 61.6°F16.4°C 68% 2.5 mph NW4.0 kmh NW 4.0 mph6.4 kmh 29.92 in1013.2 mb 0.00 in0.0 mm 0.00 in/hr0.0 mm/hr 1.09 in27.7 mm
09:00 PM 72.3°F22.4°C 61.1°F16.2°C 68% 1.6 mph WSW2.6 kmh WSW 3.0 mph4.8 kmh 29.93 in1013.5 mb 0.00 in0.0 mm 0.00 in/hr0.0 mm/hr 1.09 in27.7 mm
09:10 PM 71.8°F22.1°C 61.1°F16.2°C 69% 2.9 mph WSW4.7 kmh WSW 5.0 mph8.0 kmh 29.93 in1013.5 mb 0.00 in0.0 mm 0.00 in/hr0.0 mm/hr 1.09 in27.7 mm
09:20 PM 71.5°F21.9°C 60.8°F16.0°C 69% 2.1 mph W3.4 kmh W 4.0 mph6.4 kmh 29.94 in1013.9 mb 0.00 in0.0 mm 0.00 in/hr0.0 mm/hr 1.09 in27.7 mm
09:30 PM 71.3°F21.8°C 61.0°F16.1°C 70% 2.1 mph W3.4 kmh W 6.0 mph9.7 kmh 29.95 in1014.2 mb 0.00 in0.0 mm 0.00 in/hr0.0 mm/hr 1.09 in27.7 mm
09:40 PM 71.0°F21.7°C 60.7°F15.9°C 70% 0.8 mph WSW1.3 kmh WSW 2.0 mph3.2 kmh 29.95 in1014.2 mb 0.00 in0.0 mm 0.00 in/hr0.0 mm/hr 1.09 in27.7 mm
09:50 PM 70.7°F21.5°C 60.9°F16.1°C 71% 3.0 mph WSW4.8 kmh WSW 9.0 mph14.5 kmh 29.95 in1014.2 mb 0.00 in0.0 mm 0.00 in/hr0.0 mm/hr 1.09 in27.7 mm
10:00 PM 70.5°F21.4°C 61.0°F16.1°C 72% 1.5 mph SW2.4 kmh SW 2.0 mph3.2 kmh 29.95 in1014.2 mb 0.00 in0.0 mm 0.00 in/hr0.0 mm/hr 1.09 in27.7 mm
10:10 PM 70.2°F21.2°C 60.7°F15.9°C 72% 1.0 mph WSW1.6 kmh WSW 2.0 mph3.2 kmh 29.95 in1014.2 mb 0.00 in0.0 mm 0.00 in/hr0.0 mm/hr 1.09 in27.7 mm
10:20 PM 69.9°F21.1°C 60.8°F16.0°C 73% 0.8 mph W1.3 kmh W 1.0 mph1.6 kmh 29.95 in1014.2 mb 0.00 in0.0 mm 0.00 in/hr0.0 mm/hr 1.09 in27.7 mm
10:30 PM 69.5°F20.8°C 60.9°F16.1°C 74% 0.4 mph SW0.6 kmh SW 1.0 mph1.6 kmh 29.96 in1014.6 mb 0.00 in0.0 mm 0.00 in/hr0.0 mm/hr 1.09 in27.7 mm
10:40 PM 69.1°F20.6°C 60.5°F15.8°C 74% 1.8 mph WSW2.9 kmh WSW 4.0 mph6.4 kmh 29.96 in1014.6 mb 0.00 in0.0 mm 0.00 in/hr0.0 mm/hr 1.09 in27.7 mm
10:50 PM 68.9°F20.5°C 60.6°F15.9°C 75% 2.3 mph WNW3.7 kmh WNW 5.0 mph8.0 kmh 29.96 in1014.6 mb 0.00 in0.0 mm 0.00 in/hr0.0 mm/hr 1.09 in27.7 mm
11:00 PM 68.6°F20.3°C 60.4°F15.8°C 75% 3.5 mph WSW5.6 kmh WSW 7.0 mph11.3 kmh 29.96 in1014.6 mb 0.00 in0.0 mm 0.00 in/hr0.0 mm/hr 1.09 in27.7 mm
11:10 PM 68.3°F20.2°C 60.4°F15.8°C 76% 3.3 mph W5.3 kmh W 4.0 mph6.4 kmh 29.96 in1014.6 mb 0.00 in0.0 mm 0.00 in/hr0.0 mm/hr 1.09 in27.7 mm
11:20 PM 68.1°F20.1°C 60.6°F15.9°C 77% 4.1 mph WNW6.6 kmh WNW 7.0 mph11.3 kmh 29.96 in1014.6 mb 0.00 in0.0 mm 0.00 in/hr0.0 mm/hr 1.09 in27.7 mm
11:30 PM 67.8°F19.9°C 60.3°F15.7°C 77% 2.9 mph WSW4.7 kmh WSW 6.0 mph9.7 kmh 29.96 in1014.6 mb 0.00 in0.0 mm 0.00 in/hr0.0 mm/hr 1.09 in27.7 mm
11:40 PM 67.4°F19.7°C 60.3°F15.7°C 78% 3.5 mph WNW5.6 kmh WNW 4.0 mph6.4 kmh 29.96 in1014.6 mb 0.00 in0.0 mm 0.00 in/hr0.0 mm/hr 1.09 in27.7 mm
11:50 PM 66.8°F19.3°C 59.7°F15.4°C 78% 5.4 mph NW8.7 kmh NW 12.0 mph19.3 kmh 29.97 in1014.9 mb 0.00 in0.0 mm 0.00 in/hr0.0 mm/hr 1.09 in27.7 mm